Haikou Meilan International Airport
ZJHK : now visible

Airfield :











YOU CAN JOIN US ON...

 
LOGIN :

Register | Disclaimer

   EN    FR    IT 

 









Legend :    VFR   Marginal VFR   IFR   Intensive IFR   Very Intensive IFR
Visi :
Ceiling :
>= 8 km
>= 3000ft
5 to 8 km
1000 to 3000 ft
1500m to 5 km
500 to 1000 ft
800 to 1500m
200 to 500 ft
< 800m
< 200 ft
Symbols :   Thunderstorms  Fog  Heavy snow  Heavy precipitations  Wind > 20 kt






- Airport Elevation : 75 ft
- IATA code : HAK


ZJHK - Haikou Meilan International

CURRENT METAR :
  • 061100Z 16003MPS 130V190 9999 FEW026TCU SCT043 26/24 Q1005 RETS NOSIG

EXPIRED METARs :
  • 061000Z 23004MPS 190V260 9999 TS FEW015 FEW026CB SCT040 26/25 Q1005 BECMG TL1100 NSW

TAF TAF ZJHK
Valid from the 06 at 12:00 until the 07 at 12:00 UTC


060906Z 0612/0712 18004MPS 9999 SCT020 TX35/0706Z TN27/0621Z
TEMPO 0706/0712 -TSRA SCT020 FEW026CB
ZJSA FIR / Asia



MET'MAP, your aeronautical weather chart ! - Copyright ORBIFLY December 2007 - Disclaimer

ORBIFLY MET'MAP TEAM :

Programming & Development : Alexandra Zaïnal
Concept & original design : Baudouin d'Aumeries
Assistance for programming : Marc-Olivier Méhu
Technical & hardware support : Manuel Goepfert

Contact : metmap@orbifly.com




SOURCES & CREDITS :

   NOAA       Earth
Advisory